createdAt,value
2022-08-31T00:02:10.403Z,21.35
2022-08-31T00:04:38.320Z,22.02
2022-08-31T00:07:06.045Z,21.83
2022-08-31T00:09:35.210Z,22.02
2022-08-31T00:12:03.071Z,22.00
2022-08-31T00:14:30.890Z,21.65
2022-08-31T00:16:59.067Z,22.27
2022-08-31T00:19:26.890Z,22.15
2022-08-31T00:21:54.564Z,22.27
2022-08-31T00:24:22.351Z,21.75
2022-08-31T00:26:51.336Z,23.15
2022-08-31T00:29:18.967Z,22.48
2022-08-31T00:31:46.758Z,22.88
2022-08-31T00:34:14.495Z,23.63
2022-08-31T00:36:42.152Z,21.95
2022-08-31T00:39:09.799Z,22.70
2022-08-31T00:41:40.449Z,22.00
2022-08-31T00:44:11.419Z,23.05
2022-08-31T00:46:41.183Z,22.27
2022-08-31T00:49:11.278Z,22.10
2022-08-31T00:51:41.498Z,22.83
2022-08-31T00:54:11.564Z,25.90
2022-08-31T00:56:40.773Z,21.85
2022-08-31T00:59:09.818Z,22.13
2022-08-31T01:01:37.587Z,21.88
2022-08-31T01:04:05.670Z,21.95
2022-08-31T01:06:33.607Z,22.38
2022-08-31T01:09:02.745Z,22.25
2022-08-31T01:11:30.734Z,22.17
2022-08-31T01:13:58.398Z,22.08
2022-08-31T01:16:29.612Z,23.95
2022-08-31T01:18:58.847Z,23.27
2022-08-31T01:21:28.761Z,21.95
2022-08-31T01:23:59.341Z,23.15
2022-08-31T01:26:29.695Z,23.85
2022-08-31T01:29:01.635Z,22.83
2022-08-31T01:31:33.716Z,23.33
2022-08-31T01:34:02.129Z,22.48
2022-08-31T01:36:29.927Z,22.58
2022-08-31T01:38:58.980Z,23.10
2022-08-31T01:41:26.651Z,23.17
2022-08-31T01:43:54.674Z,21.85
2022-08-31T01:46:22.841Z,22.05
2022-08-31T01:48:52.228Z,22.65
2022-08-31T01:51:21.459Z,21.92
2022-08-31T01:53:51.074Z,23.92
2022-08-31T01:56:22.805Z,22.35
2022-08-31T01:58:50.633Z,23.95
2022-08-31T02:01:33.634Z,22.85
2022-08-31T02:04:01.859Z,20.42
2022-08-31T02:06:29.522Z,25.38
2022-08-31T02:08:57.315Z,23.33
2022-08-31T02:11:26.305Z,28.83
2022-08-31T02:13:53.945Z,26.13
2022-08-31T02:16:21.699Z,23.13
2022-08-31T02:18:49.465Z,24.63
2022-08-31T02:21:17.128Z,24.15
2022-08-31T02:23:44.817Z,23.65
2022-08-31T02:26:12.906Z,25.45
2022-08-31T02:28:42.322Z,24.35
2022-08-31T02:31:10.006Z,23.60
2022-08-31T02:33:37.710Z,23.60
2022-08-31T02:36:05.863Z,24.98
2022-08-31T02:38:34.276Z,22.80
2022-08-31T02:41:02.398Z,22.33
2022-08-31T02:43:30.117Z,23.40
2022-08-31T02:45:59.164Z,22.80
2022-08-31T02:48:26.959Z,21.15
2022-08-31T02:50:54.925Z,23.67
2022-08-31T02:53:23.926Z,22.15
2022-08-31T02:55:52.037Z,21.80
2022-08-31T02:58:23.877Z,23.40
2022-08-31T03:00:52.261Z,23.27
2022-08-31T03:03:21.905Z,22.70
2022-08-31T03:05:49.615Z,23.00
2022-08-31T03:08:17.268Z,22.08
2022-08-31T03:10:45.207Z,23.02
2022-08-31T03:13:12.887Z,23.15
2022-08-31T03:15:42.207Z,23.52
2022-08-31T03:18:10.208Z,22.55
2022-08-31T03:20:39.388Z,23.00
2022-08-31T03:23:07.107Z,23.85
2022-08-31T03:25:36.140Z,27.48
2022-08-31T03:28:07.189Z,24.73
2022-08-31T03:30:34.898Z,25.42
2022-08-31T03:33:02.931Z,25.42
2022-08-31T03:35:30.882Z,22.67
2022-08-31T03:38:01.050Z,22.45
2022-08-31T03:40:28.742Z,22.15
2022-08-31T03:42:57.602Z,21.35
2022-08-31T03:45:25.374Z,22.75
2022-08-31T03:47:52.994Z,22.20
2022-08-31T03:50:20.711Z,22.00
2022-08-31T03:52:48.425Z,21.42
2022-08-31T03:55:17.657Z,25.55
2022-08-31T03:57:45.302Z,23.88
2022-08-31T04:00:14.029Z,21.08
2022-08-31T04:05:31.016Z,24.23
2022-08-31T04:07:58.849Z,23.77
2022-08-31T04:10:27.852Z,24.52
2022-08-31T04:12:55.680Z,25.85
2022-08-31T04:15:24.402Z,25.02
2022-08-31T04:17:57.119Z,22.88
2022-08-31T04:20:29.549Z,23.38
2022-08-31T04:22:57.783Z,25.88
2022-08-31T04:25:26.771Z,23.30
2022-08-31T04:27:55.126Z,24.02
2022-08-31T04:30:26.092Z,23.60
2022-08-31T04:32:54.312Z,23.95
2022-08-31T04:35:22.317Z,22.52
2022-08-31T04:37:49.956Z,23.83
2022-08-31T04:40:19.773Z,24.88
2022-08-31T04:42:49.593Z,26.88
2022-08-31T04:45:17.761Z,23.42
2022-08-31T04:47:45.426Z,23.75
2022-08-31T04:50:16.443Z,26.33
2022-08-31T04:52:45.068Z,27.45
2022-08-31T04:55:25.109Z,22.10
2022-08-31T04:57:56.590Z,24.27
2022-08-31T05:00:24.833Z,23.27
2022-08-31T05:02:53.363Z,26.77
2022-08-31T05:05:21.090Z,22.77
2022-08-31T05:07:48.760Z,22.63
2022-08-31T05:10:16.539Z,26.55
2022-08-31T05:12:44.369Z,26.05
2022-08-31T05:15:13.449Z,35.88
2022-08-31T05:17:41.019Z,24.00
2022-08-31T05:20:09.107Z,22.60
2022-08-31T05:22:36.738Z,23.88
2022-08-31T05:25:06.952Z,23.17
2022-08-31T05:27:36.279Z,25.77
2022-08-31T05:30:05.285Z,23.15
2022-08-31T05:32:34.393Z,22.38
2022-08-31T05:35:06.284Z,25.25
2022-08-31T05:37:34.138Z,22.50
2022-08-31T05:40:01.923Z,23.95
2022-08-31T05:42:29.751Z,24.70
2022-08-31T05:44:57.524Z,25.38
2022-08-31T05:47:25.310Z,23.75
2022-08-31T05:49:54.451Z,24.40
2022-08-31T05:52:24.980Z,26.10
2022-08-31T05:54:53.072Z,23.92
2022-08-31T05:57:25.840Z,23.90
2022-08-31T05:59:54.313Z,24.50
2022-08-31T06:02:22.125Z,23.73
2022-08-31T06:04:52.161Z,23.63
2022-08-31T06:07:21.784Z,24.92
2022-08-31T06:09:49.534Z,24.13
2022-08-31T06:12:17.753Z,24.35
2022-08-31T06:14:47.932Z,25.63
2022-08-31T06:17:17.916Z,24.17
2022-08-31T06:19:45.712Z,25.25
2022-08-31T06:22:13.498Z,27.33
2022-08-31T06:24:43.126Z,30.17
2022-08-31T06:27:10.852Z,23.20
2022-08-31T06:29:38.889Z,23.90
2022-08-31T06:32:11.024Z,24.42
2022-08-31T06:34:39.243Z,29.20
2022-08-31T06:37:07.462Z,25.15
2022-08-31T06:39:38.727Z,24.00
2022-08-31T06:42:08.270Z,25.27
2022-08-31T06:44:36.209Z,26.08
2022-08-31T06:47:04.175Z,26.25
2022-08-31T06:49:32.334Z,24.83
2022-08-31T06:52:00.929Z,25.45
2022-08-31T06:54:30.476Z,25.05
2022-08-31T06:56:59.070Z,26.92
2022-08-31T06:59:29.914Z,28.15
2022-08-31T07:01:59.018Z,24.33
2022-08-31T07:04:28.100Z,22.95
2022-08-31T07:06:56.046Z,25.50
2022-08-31T07:09:24.008Z,27.48
2022-08-31T07:11:52.683Z,22.77
2022-08-31T07:14:22.684Z,23.77
2022-08-31T07:16:53.328Z,24.98
2022-08-31T07:19:22.175Z,25.48
2022-08-31T07:21:52.165Z,25.77
2022-08-31T07:24:23.973Z,28.30
2022-08-31T07:26:54.413Z,25.98
2022-08-31T07:29:24.007Z,28.13
2022-08-31T07:31:56.201Z,28.75
2022-08-31T07:37:12.859Z,24.23
2022-08-31T07:39:59.246Z,34.05
2022-08-31T07:42:29.736Z,26.73
2022-08-31T07:45:00.057Z,28.42
2022-08-31T07:47:30.906Z,25.55
2022-08-31T07:50:01.076Z,26.40
2022-08-31T07:52:31.803Z,28.58
2022-08-31T07:55:05.039Z,25.17
2022-08-31T07:57:36.277Z,27.52
2022-08-31T08:00:09.073Z,26.00
2022-08-31T08:02:39.885Z,25.55
2022-08-31T08:05:09.040Z,25.95
2022-08-31T08:07:37.715Z,26.13
2022-08-31T08:10:14.486Z,24.00
2022-08-31T08:12:42.608Z,25.80
2022-08-31T08:15:11.575Z,37.60
2022-08-31T08:17:40.679Z,27.23
2022-08-31T08:20:13.476Z,23.83
2022-08-31T08:22:54.258Z,26.60
2022-08-31T08:25:25.915Z,24.48
2022-08-31T08:27:55.372Z,26.60
2022-08-31T08:30:23.723Z,25.10
2022-08-31T08:33:03.999Z,25.88
2022-08-31T08:35:35.244Z,25.05
2022-08-31T08:38:07.751Z,25.50
2022-08-31T08:40:39.602Z,24.70
2022-08-31T08:43:07.583Z,24.13
2022-08-31T08:45:36.661Z,22.17
2022-08-31T08:48:12.801Z,22.98
2022-08-31T08:50:42.761Z,26.40
2022-08-31T08:53:13.365Z,24.45
2022-08-31T08:55:43.462Z,25.83
2022-08-31T08:58:13.647Z,22.88
2022-08-31T09:00:46.709Z,21.90
2022-08-31T09:03:21.726Z,24.80
2022-08-31T09:06:02.099Z,23.60
2022-08-31T09:08:59.640Z,26.38
2022-08-31T09:11:32.344Z,25.55
2022-08-31T09:14:06.324Z,23.88
2022-08-31T09:16:40.159Z,24.60
2022-08-31T09:19:12.660Z,25.08
2022-08-31T09:21:43.206Z,26.80
2022-08-31T09:24:13.924Z,25.67
2022-08-31T09:26:55.439Z,26.13
2022-08-31T09:29:26.842Z,25.40
2022-08-31T09:32:06.014Z,24.42
2022-08-31T09:34:37.729Z,24.85
2022-08-31T09:37:17.192Z,24.93
2022-08-31T09:39:49.305Z,24.60
2022-08-31T09:45:00.398Z,23.90
2022-08-31T09:47:48.685Z,22.97
2022-08-31T09:50:31.611Z,25.67
2022-08-31T09:53:36.760Z,24.73
2022-08-31T09:56:15.597Z,26.35
2022-08-31T09:58:45.594Z,23.25
2022-08-31T10:01:19.717Z,22.88
2022-08-31T10:03:47.844Z,22.42
2022-08-31T10:06:35.597Z,22.80
2022-08-31T10:09:06.425Z,25.77
2022-08-31T10:11:35.411Z,25.95
2022-08-31T10:14:06.250Z,22.00
2022-08-31T10:16:37.589Z,22.05
2022-08-31T10:19:07.387Z,24.50
2022-08-31T10:21:44.161Z,22.40
2022-08-31T10:24:28.766Z,21.85
2022-08-31T10:27:05.309Z,23.40
2022-08-31T10:29:39.878Z,23.58
2022-08-31T10:32:18.891Z,22.30
2022-08-31T10:35:06.926Z,22.80
2022-08-31T10:37:43.646Z,21.20
2022-08-31T10:40:17.668Z,22.75
2022-08-31T10:42:50.228Z,23.75
2022-08-31T10:45:22.342Z,25.52
2022-08-31T10:50:27.454Z,25.95
2022-08-31T10:53:04.034Z,26.15
2022-08-31T10:55:37.234Z,22.88
2022-08-31T10:58:09.708Z,24.60
2022-08-31T11:00:48.863Z,28.50
2022-08-31T11:03:23.031Z,24.85
2022-08-31T11:05:55.720Z,25.05
2022-08-31T11:08:50.090Z,29.20
2022-08-31T11:11:25.095Z,25.67
2022-08-31T11:14:15.177Z,23.35
2022-08-31T11:16:55.125Z,23.85
2022-08-31T11:19:42.820Z,24.10
2022-08-31T11:22:28.650Z,21.33
2022-08-31T11:25:27.005Z,23.63
2022-08-31T11:27:58.750Z,24.48
2022-08-31T11:30:29.871Z,24.67
2022-08-31T11:33:00.277Z,25.23
2022-08-31T11:36:03.877Z,25.48
2022-08-31T11:38:48.744Z,23.52
2022-08-31T11:41:39.607Z,26.63
2022-08-31T11:44:09.244Z,22.50
2022-08-31T11:47:02.175Z,25.20
2022-08-31T11:49:40.500Z,26.30
2022-08-31T11:52:14.768Z,25.38
2022-08-31T11:55:10.433Z,28.95
2022-08-31T11:58:21.131Z,37.60
2022-08-31T12:00:56.018Z,29.33
2022-08-31T12:04:03.507Z,29.23
2022-08-31T12:07:07.810Z,34.20
2022-08-31T12:10:09.524Z,32.95
2022-08-31T12:13:18.667Z,29.10
2022-08-31T12:16:05.050Z,25.45
2022-08-31T12:18:43.508Z,22.00
2022-08-31T12:21:36.649Z,17.95
2022-08-31T12:24:19.010Z,17.20
2022-08-31T12:27:03.938Z,16.45
2022-08-31T12:29:34.185Z,16.55
2022-08-31T12:32:24.038Z,16.23
2022-08-31T12:34:58.083Z,16.30
2022-08-31T12:37:27.974Z,15.02
2022-08-31T12:40:20.162Z,15.52
2022-08-31T12:42:58.109Z,18.50
2022-08-31T12:45:39.658Z,15.27
2022-08-31T12:48:18.378Z,14.20
2022-08-31T12:50:49.578Z,15.15
2022-08-31T12:53:42.331Z,16.00
2022-08-31T12:56:12.964Z,14.68
2022-08-31T12:58:53.587Z,14.57
2022-08-31T13:01:25.747Z,13.82
2022-08-31T13:03:57.751Z,14.77
2022-08-31T13:06:27.113Z,13.82
2022-08-31T13:08:55.378Z,14.73
2022-08-31T13:11:34.970Z,13.93
2022-08-31T13:14:12.887Z,14.27
2022-08-31T13:16:42.860Z,14.45
2022-08-31T13:19:22.801Z,14.82
2022-08-31T13:21:52.755Z,14.18
2022-08-31T13:24:28.362Z,14.80
2022-08-31T13:27:07.847Z,14.93
2022-08-31T13:29:41.106Z,14.50
2022-08-31T13:32:09.532Z,14.82
2022-08-31T13:34:42.000Z,13.88
2022-08-31T13:37:15.855Z,14.45
2022-08-31T13:39:46.102Z,14.80
2022-08-31T13:42:31.940Z,16.05
2022-08-31T13:45:02.628Z,15.93
2022-08-31T13:47:32.115Z,15.85
2022-08-31T13:50:07.240Z,15.80
2022-08-31T13:52:35.413Z,16.55
2022-08-31T13:55:06.471Z,15.75
2022-08-31T13:57:38.276Z,15.55
2022-08-31T14:00:29.406Z,14.77
2022-08-31T14:03:01.640Z,15.55
2022-08-31T14:08:02.299Z,14.85
2022-08-31T14:10:35.197Z,14.55
2022-08-31T14:13:05.043Z,14.80
2022-08-31T14:15:39.077Z,14.25
2022-08-31T14:18:26.177Z,13.57
2022-08-31T14:21:22.723Z,14.13
2022-08-31T14:23:52.760Z,14.40
2022-08-31T14:26:22.895Z,15.02
2022-08-31T14:28:53.296Z,14.18
2022-08-31T14:31:24.639Z,14.50
2022-08-31T14:34:08.030Z,14.40
2022-08-31T14:36:50.322Z,13.15
2022-08-31T14:41:46.002Z,13.77
2022-08-31T14:44:14.314Z,14.00
2022-08-31T14:46:43.447Z,12.73
2022-08-31T14:49:11.149Z,13.57
2022-08-31T14:51:41.901Z,13.13
2022-08-31T14:54:10.009Z,13.13
2022-08-31T14:56:46.827Z,13.35
2022-08-31T14:59:16.752Z,14.57
2022-08-31T15:01:45.462Z,13.90
2022-08-31T15:04:14.909Z,13.73
2022-08-31T15:06:44.546Z,14.82
2022-08-31T15:09:13.318Z,14.90
2022-08-31T15:11:41.194Z,15.85
2022-08-31T15:14:12.446Z,16.08
2022-08-31T15:16:42.534Z,15.47
2022-08-31T15:19:13.170Z,15.45
2022-08-31T15:21:52.699Z,16.45
2022-08-31T15:24:26.864Z,16.80
2022-08-31T15:26:58.582Z,17.90
2022-08-31T15:29:29.004Z,17.40
2022-08-31T15:31:58.610Z,18.83
2022-08-31T15:34:29.527Z,19.13
2022-08-31T15:37:02.129Z,18.80
2022-08-31T15:39:32.634Z,18.85
2022-08-31T15:42:01.019Z,20.58
2022-08-31T15:44:28.738Z,22.88
2022-08-31T15:47:14.046Z,21.77
2022-08-31T15:49:43.636Z,22.75
2022-08-31T15:52:12.884Z,21.33
2022-08-31T15:54:41.348Z,21.08
2022-08-31T15:57:11.320Z,18.73
2022-08-31T15:59:41.213Z,21.75
2022-08-31T16:02:10.168Z,21.13
2022-08-31T16:04:42.855Z,20.55
2022-08-31T16:07:13.758Z,21.55
2022-08-31T16:09:46.135Z,21.10
2022-08-31T16:12:14.657Z,21.27
2022-08-31T16:14:45.210Z,20.38
2022-08-31T16:17:19.767Z,20.38
2022-08-31T16:19:47.813Z,21.08
2022-08-31T16:22:18.227Z,21.77
2022-08-31T16:24:46.977Z,20.92
2022-08-31T16:27:17.447Z,21.95
2022-08-31T16:29:45.885Z,20.77
2022-08-31T16:32:14.012Z,21.48
2022-08-31T16:34:42.764Z,21.55
2022-08-31T16:37:10.617Z,21.95
2022-08-31T16:39:42.476Z,21.40
2022-08-31T16:42:12.123Z,21.52
2022-08-31T16:44:40.603Z,22.50
2022-08-31T16:47:10.192Z,23.58
2022-08-31T16:49:38.889Z,24.67
2022-08-31T16:52:09.963Z,23.77
2022-08-31T16:54:42.845Z,23.40
2022-08-31T16:57:10.747Z,22.63
2022-08-31T16:59:38.479Z,22.48
2022-08-31T17:02:06.400Z,23.38
2022-08-31T17:04:51.507Z,23.65
2022-08-31T17:07:20.936Z,23.00
2022-08-31T17:09:50.166Z,21.90
2022-08-31T17:12:24.197Z,23.45
2022-08-31T17:14:52.820Z,24.52
2022-08-31T17:17:22.077Z,21.33
2022-08-31T17:19:52.205Z,23.08
2022-08-31T17:22:26.955Z,25.20
2022-08-31T17:24:57.906Z,24.48
2022-08-31T17:27:26.737Z,23.90
2022-08-31T17:29:56.205Z,22.83
2022-08-31T17:32:25.861Z,21.30
2022-08-31T17:34:54.675Z,22.05
2022-08-31T17:37:26.969Z,23.88
2022-08-31T17:42:27.023Z,23.33
2022-08-31T17:44:55.698Z,23.25
2022-08-31T17:47:25.024Z,23.20
2022-08-31T17:49:54.158Z,22.75
2022-08-31T17:52:23.216Z,25.10
2022-08-31T17:54:52.375Z,23.50
2022-08-31T17:57:25.316Z,25.02
2022-08-31T17:59:54.958Z,23.27
2022-08-31T18:02:27.687Z,24.83
2022-08-31T18:04:55.742Z,23.85
2022-08-31T18:07:23.555Z,24.60
2022-08-31T18:09:51.433Z,31.92
2022-08-31T18:12:22.121Z,25.67
2022-08-31T18:14:51.432Z,24.45
2022-08-31T18:17:21.621Z,25.95
2022-08-31T18:19:49.651Z,25.55
2022-08-31T18:22:18.298Z,24.27
2022-08-31T18:24:46.125Z,23.85
2022-08-31T18:27:16.171Z,25.55
2022-08-31T18:29:45.023Z,24.95
2022-08-31T18:32:14.274Z,24.63
2022-08-31T18:34:44.767Z,24.95
2022-08-31T18:37:13.447Z,23.10
2022-08-31T18:39:59.575Z,24.50
2022-08-31T18:42:46.268Z,21.15
2022-08-31T18:45:18.746Z,21.38
2022-08-31T18:50:44.451Z,19.15
2022-08-31T18:53:15.060Z,19.67
2022-08-31T18:55:43.811Z,19.23
2022-08-31T18:58:12.065Z,18.58
2022-08-31T19:00:40.345Z,20.88
2022-08-31T19:03:09.771Z,23.80
2022-08-31T19:05:40.205Z,17.80
2022-08-31T19:08:08.112Z,17.58
2022-08-31T19:10:35.951Z,17.08
2022-08-31T19:13:07.609Z,18.45
2022-08-31T19:15:39.304Z,18.88
2022-08-31T19:18:07.702Z,17.50
2022-08-31T19:20:37.157Z,17.70
2022-08-31T19:23:05.329Z,18.80
2022-08-31T19:25:33.079Z,18.13
2022-08-31T19:28:01.761Z,18.38
2022-08-31T19:30:30.263Z,20.05
2022-08-31T19:32:58.093Z,18.67
2022-08-31T19:35:27.151Z,19.15
2022-08-31T19:37:56.725Z,18.60
2022-08-31T19:40:43.041Z,18.98
2022-08-31T19:46:16.007Z,22.95
2022-08-31T19:48:44.623Z,17.88
2022-08-31T19:51:14.471Z,20.10
2022-08-31T19:53:45.279Z,20.38
2022-08-31T19:56:17.255Z,17.77
2022-08-31T19:58:47.037Z,18.55
2022-08-31T20:01:15.716Z,19.75
2022-08-31T20:03:43.437Z,18.38
2022-08-31T20:06:13.382Z,19.17
2022-08-31T20:08:43.580Z,18.27
2022-08-31T20:11:13.196Z,18.70
2022-08-31T20:13:41.308Z,18.88
2022-08-31T20:16:09.769Z,20.05
2022-08-31T20:18:38.259Z,20.05
2022-08-31T20:21:17.537Z,20.67
2022-08-31T20:23:47.868Z,19.40
2022-08-31T20:26:15.882Z,18.98
2022-08-31T20:28:43.636Z,19.38
2022-08-31T20:31:12.566Z,22.35
2022-08-31T20:33:40.403Z,19.52
2022-08-31T20:36:18.973Z,23.63
2022-08-31T20:38:48.915Z,20.58
2022-08-31T20:41:16.737Z,20.30
2022-08-31T20:43:45.149Z,18.92
2022-08-31T20:46:34.355Z,20.20
2022-08-31T20:49:19.704Z,19.45
2022-08-31T20:51:47.519Z,18.83
2022-08-31T20:54:18.351Z,19.17
2022-08-31T20:56:46.014Z,19.02
2022-08-31T20:59:13.663Z,19.13
2022-08-31T21:01:41.680Z,19.58
2022-08-31T21:04:09.460Z,19.00
2022-08-31T21:06:37.233Z,19.27
2022-08-31T21:09:06.661Z,19.63
2022-08-31T21:11:40.846Z,19.25
2022-08-31T21:14:09.570Z,19.80
2022-08-31T21:16:40.753Z,21.15
2022-08-31T21:19:11.746Z,19.52
2022-08-31T21:21:40.511Z,20.23
2022-08-31T21:24:09.285Z,19.92
2022-08-31T21:26:40.974Z,19.33
2022-08-31T21:29:10.685Z,18.75
2022-08-31T21:31:46.360Z,19.65
2022-08-31T21:34:18.803Z,19.33
2022-08-31T21:36:47.448Z,19.75
2022-08-31T21:39:17.470Z,21.17
2022-08-31T21:41:47.095Z,19.98
2022-08-31T21:44:17.048Z,19.45
2022-08-31T21:46:50.291Z,21.48
2022-08-31T21:49:19.079Z,19.83
2022-08-31T21:51:49.735Z,21.58
2022-08-31T21:54:19.159Z,21.85
2022-08-31T21:56:50.965Z,21.20
2022-08-31T21:59:20.210Z,20.05
2022-08-31T22:01:48.528Z,22.38
2022-08-31T22:04:19.938Z,21.90
2022-08-31T22:06:49.684Z,27.00
2022-08-31T22:09:22.363Z,23.88
2022-08-31T22:11:54.915Z,21.25
2022-08-31T22:14:28.705Z,20.63
2022-08-31T22:16:57.875Z,23.52
2022-08-31T22:19:28.390Z,22.42
2022-08-31T22:21:58.974Z,20.88
2022-08-31T22:24:28.578Z,25.92
2022-08-31T22:27:00.466Z,23.08
2022-08-31T22:29:30.909Z,23.02
2022-08-31T22:32:00.986Z,22.88
2022-08-31T22:34:28.621Z,23.63
2022-08-31T22:36:57.081Z,22.55
2022-08-31T22:39:29.129Z,27.45
2022-08-31T22:41:59.198Z,24.67
2022-08-31T22:44:28.975Z,25.98
2022-08-31T22:46:57.272Z,23.88
2022-08-31T22:49:25.864Z,26.38
2022-08-31T22:51:54.204Z,26.85
2022-08-31T22:54:22.348Z,26.33
2022-08-31T22:56:50.090Z,31.77
2022-08-31T22:59:26.125Z,25.45
2022-08-31T23:01:56.333Z,24.58
2022-08-31T23:04:26.333Z,29.77
2022-08-31T23:06:56.235Z,25.45
2022-08-31T23:09:27.662Z,28.90
2022-08-31T23:11:56.045Z,32.30
2022-08-31T23:14:25.477Z,26.98
2022-08-31T23:16:59.030Z,25.27
2022-08-31T23:19:30.343Z,29.67
2022-08-31T23:21:58.877Z,26.25
2022-08-31T23:24:28.593Z,25.85
2022-08-31T23:27:01.593Z,26.45
2022-08-31T23:29:34.549Z,30.15
2022-08-31T23:32:02.918Z,29.23
2022-08-31T23:34:30.872Z,29.20
2022-08-31T23:36:58.550Z,32.13
2022-08-31T23:39:26.320Z,31.73
2022-08-31T23:41:53.964Z,29.63
2022-08-31T23:44:22.433Z,28.02
2022-08-31T23:46:51.470Z,29.75
2022-08-31T23:49:20.569Z,30.17
2022-08-31T23:51:49.885Z,28.52
2022-08-31T23:54:18.383Z,32.72
2022-08-31T23:56:49.530Z,30.38
2022-08-31T23:59:19.620Z,27.83
